ADDS METAR Data INFO
IDs: Format: Raw Decoded Include TAF

Data at: 1351 UTC 23 Jun 2018

KMDJ 231335Z AUTO 22011KT 10SM FEW021 29/24 A2999 RMK A01
KMDJ 231315Z AUTO 21010KT 10SM CLR 29/24 A2999 RMK A01
KMDJ 231255Z AUTO 22011KT 10SM FEW019 FEW030 FEW035 29/24 A2999 RMK A01
KMDJ 231235Z AUTO 22010KT 10SM FEW020 SCT029 SCT035 29/25 A2999 RMK A01
KMDJ 231215Z AUTO 22012KT FEW020 29/24 A2998 RMK A01
KMDJ 231155Z AUTO 22012KT 10SM FEW021 FEW025 29/24 A2997 RMK A01
KMDJ 231135Z AUTO 22012KT 10SM FEW023 29/25 A2996 RMK A01
KMDJ 231115Z AUTO 21011KT 10SM FEW019 FEW026 SCT031 29/25 A2995 RMK A01
KMDJ 231055Z AUTO 21013KT 10SM SCT020 SCT026 BKN036 29/25 A2995 RMK A01
KMDJ 231035Z AUTO 21014KT 10SM FEW021 SCT026 SCT033 29/24 A2994 RMK A01
KMDJ 231015Z AUTO 21013KT 10SM SCT020 BKN027 SCT036 29/24 A2994 RMK A01
KMDJ 230955Z AUTO 21012KT 10SM SCT022 29/24 A2994 RMK A01
KMDJ 230935Z AUTO 21013KT 10SM CLR 29/25 A2993 RMK A01
KMDJ 230915Z AUTO 21014KT 10SM FEW019 29/24 A2993 RMK A01
KMDJ 230855Z AUTO 21016KT 10SM SCT018 SCT024 29/25 A2993 RMK A01
KMDJ 230835Z AUTO 21016KT 10SM SCT018 SCT024 29/25 A2993 RMK A01
KMDJ 230815Z AUTO 21016KT 10SM FEW019 SCT027 SCT032 29/25 A2992 RMK A01
KMDJ 230755Z AUTO 20016G22KT 10SM SCT019 SCT027 29/25 A2993 RMK A01
KMDJ 230735Z AUTO 21015G20KT 10SM FEW018 FEW023 FEW030 29/25 A2993 RMK A01
KMDJ 230715Z AUTO 20016KT 10SM FEW018 FEW043 29/25 A2994 RMK A01
KMDJ 230655Z AUTO 21013KT 10SM FEW019 SCT025 SCT034 29/25 A2994 RMK A01
KMDJ 230635Z AUTO 20015KT 10SM SCT019 SCT037 SCT050 29/25 A2995 RMK A01
KMDJ 230615Z AUTO 20016KT 10SM FEW019 FEW026 SCT050 29/25 A2995 RMK A01
KMDJ 230555Z AUTO 21011KT 10SM SCT019 SCT025 BKN046 29/24 A2995 RMK A01
KMDJ 230535Z AUTO 20008G13KT 10SM FEW019 SCT025 SCT032 29/24 A2996 RMK A01
KMDJ 230515Z AUTO 21009KT 10SM FEW020 SCT024 SCT032 29/24 A2996 RMK A01
KMDJ 230455Z AUTO 21009KT 10SM SCT023 SCT029 BKN034 29/24 A2996 RMK A01
KMDJ 230435Z AUTO 21009KT 10SM BKN023 BKN029 29/24 A2995 RMK A01
KMDJ 230415Z AUTO 21009KT 10SM FEW023 SCT028 29/24 A2995 RMK A01
KMDJ 230355Z AUTO 21010KT 10SM FEW024 29/24 A2994 RMK A01
KMDJ 230335Z AUTO 22010KT 10SM CLR 29/23 A2994 RMK A01
KMDJ 230315Z AUTO 22011KT 10SM CLR 29/24 A2993 RMK A01
KMDJ 230255Z AUTO 21009KT 10SM FEW023 29/23 A2993 RMK A01
KMDJ 230235Z AUTO 22010KT 10SM FEW024 FEW028 FEW035 29/24 A2993 RMK A01
KMDJ 230215Z AUTO 23011KT 10SM FEW024 SCT035 29/24 A2993 RMK A01
KMDJ 230155Z AUTO 23010KT 10SM CLR 29/24 A2993 RMK A01
KMDJ 230135Z AUTO 23008KT 10SM FEW023 FEW028 29/23 A2992 RMK A01
KMDJ 230115Z AUTO 23011KT 10SM CLR 29/24 A2993 RMK A01
KMDJ 230055Z AUTO 23011KT 10SM FEW024 29/23 A2992 RMK A01
KMDJ 230035Z AUTO 23011KT 10SM FEW025 SCT035 29/24 A2993 RMK A01
KMDJ 230015Z AUTO 23012KT 10SM SCT025 SCT036 29/23 A2993 RMK A01
KMDJ 222355Z AUTO VRB06G14KT 10SM SCT024 SCT036 29/23 A2992 RMK A01
KMDJ 222335Z AUTO 24011KT 10SM FEW025 29/23 A2992 RMK A01
KMDJ 222315Z AUTO 24010G16KT 220V280 10SM FEW024 29/23 A2992 RMK A01
KMDJ 222255Z AUTO 23013KT 10SM FEW022 29/23 A2992 RMK A01
KMDJ 222235Z AUTO 23014KT 10SM FEW022 29/24 A2992 RMK A01
KMDJ 222215Z AUTO 23012KT 10SM CLR 29/24 A2993 RMK A01
KMDJ 222155Z AUTO 23012KT 10SM CLR 29/24 A2993 RMK A01
KMDJ 222135Z AUTO 23012KT 10SM FEW023 29/24 A2994 RMK A01
KMDJ 222115Z AUTO 25008G13KT 220V290 10SM FEW024 29/24 A2995 RMK A01
KMDJ 222055Z AUTO 24011KT 10SM FEW022 29/24 A2995 RMK A01
KMDJ 222035Z AUTO 24011G16KT 10SM FEW024 29/24 A2996 RMK A01
KMDJ 222015Z AUTO 24012KT 10SM CLR 29/24 A2996 RMK A01
KMDJ 221955Z AUTO 23013KT 10SM FEW022 FEW041 29/24 A2997 RMK A01
KMDJ 221935Z AUTO 24013KT 10SM FEW022 FEW041 29/24 A2997 RMK A01
KMDJ 221915Z AUTO 23014KT 10SM SCT023 29/24 A2998 RMK A01
KMDJ 221855Z AUTO 23013KT 10SM SCT023 SCT028 29/24 A2998 RMK A01
KMDJ 221835Z AUTO 24012KT 10SM FEW022 SCT027 29/24 A2999 RMK A01
KMDJ 221815Z AUTO 23012KT 210V270 10SM FEW025 29/24 A2999 RMK A01
KMDJ 221755Z AUTO 23014KT 10SM CLR 29/24 A3000 RMK A01
KMDJ 221735Z AUTO 23017KT 10SM CLR 29/23 A2999 RMK A01
KMDJ 221715Z AUTO 23012G19KT 10SM FEW024 29/24 A2999 RMK A01
KMDJ 221655Z AUTO 23016KT 10SM FEW024 29/24 A2999 RMK A01
KMDJ 221635Z AUTO 23015KT 10SM FEW024 29/24 A2998 RMK A01
KMDJ 221615Z AUTO 23017KT 10SM CLR 29/23 A2999 RMK A01
KMDJ 221555Z AUTO 23014KT 10SM FEW022 29/23 A2999 RMK A01
KMDJ 221535Z AUTO 23015KT 10SM CLR 29/23 A2999 RMK A01
KMDJ 221515Z AUTO 22014G19KT 10SM CLR 29/24 A2999 RMK A01
KMDJ 221455Z AUTO 22012KT 10SM FEW021 29/24 A2999 RMK A01
KMDJ 221435Z AUTO 22010KT 10SM FEW020 29/24 A2998 RMK A01
KMDJ 221415Z AUTO 23013KT 10SM FEW019 FEW027 29/24 A2998 RMK A01
KMDJ 221355Z AUTO 22012KT 10SM SCT021 SCT027 SCT035 29/24 A2998 RMK A01
KMDJ 221335Z AUTO 22011KT 10SM CLR 29/24 A2998 RMK A01
KMDJ 221315Z AUTO 21008KT 9SM FEW021 29/24 A2998 RMK A01
KMDJ 221255Z AUTO 23009KT 9SM FEW022 29/24 A2997 RMK A01
KMDJ 221235Z AUTO 23009KT 9SM SCT022 SCT027 29/24 A2997 RMK A01
KMDJ 221215Z AUTO 22008KT 9SM FEW020 FEW027 29/24 A2997 RMK A01
KMDJ 221155Z AUTO 23011KT 9SM CLR 28/24 A2996 RMK A01
KMDJ 221135Z AUTO 23011KT 9SM CLR 28/24 A2996 RMK A01
KMDJ 221115Z AUTO 23012KT FEW021 28/23 A2995 RMK A01
KMDJ 221055Z AUTO 23012KT 10SM FEW020 28/24 A2995 RMK A01
KMDJ 221035Z AUTO 24012KT 10SM FEW020 FEW026 28/23 A2994 RMK A01
KMDJ 221015Z AUTO 24011KT 10SM SCT021 SCT026 28/24 A2994 RMK A01
KMDJ 220955Z AUTO 22011G16KT 10SM FEW021 28/24 A2993 RMK A01
KMDJ 220935Z AUTO 23013KT 10SM FEW021 FEW120 28/24 A2993 RMK A01
KMDJ 220915Z AUTO 22011KT 10SM FEW120 28/24 A2993 RMK A01
KMDJ 220855Z AUTO 22010KT 10SM FEW020 28/24 A2993 RMK A01
KMDJ 220835Z AUTO 23013KT 10SM FEW020 28/24 A2993 RMK A01
KMDJ 220815Z AUTO 23011KT 10SM CLR 28/24 A2993 RMK A01
KMDJ 220755Z AUTO 23012KT 10SM CLR 28/23 A2993 RMK A01
KMDJ 220735Z AUTO 23012KT 10SM CLR 28/24 A2993 RMK A01
KMDJ 220715Z AUTO 22012KT 10SM CLR 28/23 A2993 RMK A01
KMDJ 220655Z AUTO 22011KT 10SM CLR 28/23 A2994 RMK A01
KMDJ 220635Z AUTO 22010KT 10SM SCT022 SCT032 28/24 A2994 RMK A01
KMDJ 220615Z AUTO 22010KT 10SM SCT022 BKN027 BKN033 28/24 A2995 RMK A01
KMDJ 220555Z AUTO 23010KT 10SM FEW022 SCT026 SCT032 28/24 A2995 RMK A01
KMDJ 220535Z AUTO 23011KT 10SM FEW023 FEW031 28/23 A2996 RMK A01
KMDJ 220515Z AUTO 22010KT 10SM SCT023 SCT031 28/23 A2996 RMK A01
KMDJ 220455Z AUTO 22009KT 10SM SCT024 28/23 A2996 RMK A01
KMDJ 220435Z AUTO 22008KT 9SM SCT023 28/23 A2996 RMK A01
KMDJ 220415Z AUTO 21009KT 10SM SCT021 SCT028 28/23 A2996 RMK A01
KMDJ 220355Z AUTO 21008KT 10SM SCT021 SCT026 28/24 A2995 RMK A01
KMDJ 220335Z AUTO 21008KT 10SM FEW023 SCT028 28/24 A2995 RMK A01
KMDJ 220315Z AUTO 21008KT 10SM SCT023 28/23 A2995 RMK A01
KMDJ 220255Z AUTO 21010KT 10SM SCT023 28/24 A2995 RMK A01
KMDJ 220235Z AUTO 21009KT 10SM SCT022 29/23 A2994 RMK A01
KMDJ 220215Z AUTO 21009KT 10SM SCT022 29/24 A2994 RMK A01
KMDJ 220155Z AUTO 21008KT 10SM SCT022 29/24 A2994 RMK A01